createdAt,value
2018-09-04T00:01:26.431Z,33.60
2018-09-04T00:03:55.046Z,35.73
2018-09-04T00:06:23.617Z,39.30
2018-09-04T00:08:53.010Z,38.53
2018-09-04T00:11:21.596Z,38.17
2018-09-04T00:13:50.134Z,44.33
2018-09-04T00:16:18.851Z,42.70
2018-09-04T00:18:50.407Z,45.67
2018-09-04T00:21:19.038Z,41.63
2018-09-04T00:23:47.650Z,50.90
2018-09-04T00:26:16.868Z,41.70
2018-09-04T00:28:45.499Z,48.50
2018-09-04T00:31:14.094Z,46.70
2018-09-04T00:33:42.649Z,49.03
2018-09-04T00:36:11.196Z,47.63
2018-09-04T00:38:39.767Z,48.47
2018-09-04T00:41:08.341Z,46.43
2018-09-04T00:43:36.836Z,48.07
2018-09-04T00:46:05.403Z,48.83
2018-09-04T00:48:33.967Z,49.57
2018-09-04T00:51:02.661Z,58.90
2018-09-04T00:53:31.409Z,54.20
2018-09-04T00:56:00.058Z,58.00
2018-09-04T00:58:28.605Z,48.20
2018-09-04T01:00:57.301Z,51.23
2018-09-04T01:03:25.970Z,56.23
2018-09-04T01:05:54.615Z,54.50
2018-09-04T01:08:23.322Z,64.90
2018-09-04T01:10:51.827Z,61.17
2018-09-04T01:13:20.389Z,54.67
2018-09-04T01:15:55.574Z,60.90
2018-09-04T01:18:25.128Z,58.77
2018-09-04T01:20:53.617Z,62.00
2018-09-04T01:23:22.116Z,66.40
2018-09-04T01:25:50.727Z,70.80
2018-09-04T01:28:19.267Z,61.53
2018-09-04T01:30:47.835Z,69.90
2018-09-04T01:33:16.436Z,75.33
2018-09-04T01:35:44.969Z,73.97
2018-09-04T01:38:13.492Z,78.13
2018-09-04T01:40:42.034Z,88.27
2018-09-04T01:43:10.536Z,86.10
2018-09-04T01:45:39.235Z,80.47
2018-09-04T01:48:07.842Z,81.03
2018-09-04T01:50:36.447Z,79.97
2018-09-04T01:53:04.997Z,87.97
2018-09-04T01:55:33.656Z,100.63
2018-09-04T01:58:02.224Z,96.27
2018-09-04T02:00:30.826Z,96.27
2018-09-04T02:02:59.417Z,100.03
2018-09-04T02:05:27.946Z,98.80
2018-09-04T02:07:56.516Z,107.97
2018-09-04T02:10:25.083Z,103.00
2018-09-04T02:12:53.623Z,116.87
2018-09-04T02:15:22.249Z,111.60
2018-09-04T02:17:50.778Z,101.40
2018-09-04T02:20:19.954Z,111.17
2018-09-04T02:22:48.640Z,112.67
2018-09-04T02:25:17.118Z,106.93
2018-09-04T02:27:45.620Z,104.30
2018-09-04T02:30:14.181Z,106.83
2018-09-04T02:32:42.630Z,101.23
2018-09-04T02:35:11.179Z,95.27
2018-09-04T02:37:39.869Z,107.23
2018-09-04T02:40:09.152Z,114.33
2018-09-04T02:42:37.652Z,105.77
2018-09-04T02:45:06.531Z,107.23
2018-09-04T02:47:35.109Z,114.57
2018-09-04T02:50:03.709Z,120.10
2018-09-04T02:52:32.345Z,112.43
2018-09-04T02:55:00.985Z,112.30
2018-09-04T02:57:29.575Z,107.87
2018-09-04T02:59:58.041Z,114.03
2018-09-04T03:02:26.700Z,116.27
2018-09-04T03:04:55.225Z,115.87
2018-09-04T03:07:23.794Z,114.80
2018-09-04T03:09:52.435Z,109.90
2018-09-04T03:12:21.097Z,109.40
2018-09-04T03:14:50.191Z,124.10
2018-09-04T03:17:18.707Z,115.20
2018-09-04T03:19:47.345Z,117.30
2018-09-04T03:22:15.948Z,121.50
2018-09-04T03:24:44.605Z,122.50
2018-09-04T03:27:13.261Z,124.07
2018-09-04T03:29:41.834Z,111.13
2018-09-04T03:32:10.389Z,111.37
2018-09-04T03:34:38.982Z,118.63
2018-09-04T03:37:07.884Z,118.60
2018-09-04T03:39:36.385Z,121.70
2018-09-04T03:42:04.941Z,114.10
2018-09-04T03:44:33.366Z,115.00
2018-09-04T03:47:01.949Z,119.73
2018-09-04T03:49:30.503Z,112.00
2018-09-04T03:51:59.025Z,126.23
2018-09-04T03:54:27.556Z,113.53
2018-09-04T03:56:56.076Z,116.30
2018-09-04T03:59:24.621Z,111.97
2018-09-04T04:01:53.205Z,104.43
2018-09-04T04:04:21.717Z,116.57
2018-09-04T04:06:51.094Z,112.23
2018-09-04T04:09:19.658Z,108.03
2018-09-04T04:11:48.203Z,102.93
2018-09-04T04:14:16.832Z,105.70
2018-09-04T04:16:45.293Z,107.47
2018-09-04T04:19:13.795Z,103.37
2018-09-04T04:21:42.445Z,110.97
2018-09-04T04:24:11.043Z,101.97
2018-09-04T04:26:39.690Z,102.57
2018-09-04T04:29:08.239Z,95.93
2018-09-04T04:31:36.882Z,93.40
2018-09-04T04:34:05.494Z,85.30
2018-09-04T04:36:34.032Z,83.17
2018-09-04T04:39:02.597Z,77.87
2018-09-04T04:41:31.135Z,74.73
2018-09-04T04:43:59.665Z,81.37
2018-09-04T04:46:28.198Z,80.00
2018-09-04T04:48:56.736Z,89.60
2018-09-04T04:51:25.625Z,77.90
2018-09-04T04:53:54.171Z,78.17
2018-09-04T04:56:23.876Z,81.40
2018-09-04T04:58:52.458Z,76.47
2018-09-04T05:01:21.031Z,74.27
2018-09-04T05:03:49.541Z,76.70
2018-09-04T05:06:18.076Z,83.00
2018-09-04T05:08:46.643Z,80.37
2018-09-04T05:11:15.327Z,81.43
2018-09-04T05:13:43.718Z,69.33
2018-09-04T05:16:12.241Z,73.67
2018-09-04T05:18:40.887Z,74.67
2018-09-04T05:21:09.503Z,73.20
2018-09-04T05:23:38.020Z,76.73
2018-09-04T05:26:06.520Z,74.37
2018-09-04T05:28:35.213Z,83.97
2018-09-04T05:31:03.768Z,65.97
2018-09-04T05:33:40.397Z,64.23
2018-09-04T05:36:08.913Z,60.17
2018-09-04T05:38:37.565Z,61.50
2018-09-04T05:41:06.043Z,55.87
2018-09-04T05:43:39.291Z,56.10
2018-09-04T05:46:12.816Z,58.53
2018-09-04T05:48:41.467Z,51.90
2018-09-04T05:51:10.033Z,57.03
2018-09-04T05:53:43.172Z,68.33
2018-09-04T05:56:12.666Z,61.53
2018-09-04T05:58:41.315Z,59.80
2018-09-04T06:01:09.953Z,64.37
2018-09-04T06:03:38.601Z,56.33
2018-09-04T06:06:07.272Z,57.80
2018-09-04T06:08:35.801Z,68.23
2018-09-04T06:11:04.293Z,62.20
2018-09-04T06:13:33.038Z,63.43
2018-09-04T06:16:01.538Z,66.83
2018-09-04T06:18:30.101Z,61.23
2018-09-04T06:20:58.812Z,67.67
2018-09-04T06:23:27.667Z,65.73
2018-09-04T06:25:56.489Z,65.60
2018-09-04T06:28:32.026Z,64.43
2018-09-04T06:31:00.718Z,63.50
2018-09-04T06:33:29.313Z,66.07
2018-09-04T06:36:03.974Z,73.03
2018-09-04T06:38:37.149Z,70.53
2018-09-04T06:41:05.714Z,70.93
2018-09-04T06:43:34.379Z,70.50
2018-09-04T06:46:03.146Z,70.40
2018-09-04T06:48:31.791Z,75.00
2018-09-04T06:51:01.266Z,76.33
2018-09-04T06:53:30.063Z,91.20
2018-09-04T06:55:58.863Z,86.77
2018-09-04T06:58:27.536Z,97.37
2018-09-04T07:00:56.264Z,100.73
2018-09-04T07:03:25.325Z,99.93
2018-09-04T07:05:53.997Z,100.97
2018-09-04T07:08:25.706Z,98.97
2018-09-04T07:10:54.360Z,106.43
2018-09-04T07:13:29.607Z,97.53
2018-09-04T07:15:58.355Z,99.17
2018-09-04T07:18:27.811Z,94.40
2018-09-04T07:20:56.579Z,90.50
2018-09-04T07:23:25.341Z,86.47
2018-09-04T07:25:58.522Z,92.23
2018-09-04T07:28:27.207Z,84.47
2018-09-04T07:30:55.938Z,84.40
2018-09-04T07:33:25.865Z,71.73
2018-09-04T07:35:54.489Z,70.43
2018-09-04T07:38:23.017Z,62.93
2018-09-04T07:40:52.308Z,65.73
2018-09-04T07:43:22.304Z,69.30
2018-09-04T07:45:51.561Z,66.40
2018-09-04T07:48:21.097Z,71.73
2018-09-04T07:50:49.817Z,72.13
2018-09-04T07:53:18.981Z,64.60
2018-09-04T07:55:47.595Z,72.43
2018-09-04T07:58:16.112Z,70.27
2018-09-04T08:00:44.736Z,68.63
2018-09-04T08:03:13.443Z,69.27
2018-09-04T08:05:42.225Z,67.53
2018-09-04T08:08:10.766Z,66.23
2018-09-04T08:10:39.342Z,69.93
2018-09-04T08:13:08.002Z,59.30
2018-09-04T08:15:37.269Z,61.23
2018-09-04T08:18:06.260Z,62.87
2018-09-04T08:20:35.645Z,50.37
2018-09-04T08:23:04.291Z,54.77
2018-09-04T08:25:33.020Z,55.33
2018-09-04T08:28:01.613Z,47.27
2018-09-04T08:30:30.217Z,50.87
2018-09-04T08:32:58.811Z,50.00
2018-09-04T08:35:28.056Z,43.27
2018-09-04T08:37:59.658Z,42.23
2018-09-04T08:40:33.656Z,54.17
2018-09-04T08:43:02.789Z,50.20
2018-09-04T08:45:32.156Z,52.87
2018-09-04T08:48:02.573Z,57.88
2018-09-04T08:50:33.659Z,54.37
2018-09-04T08:53:02.965Z,56.00
2018-09-04T08:55:31.515Z,53.40
2018-09-04T08:58:00.067Z,53.03
2018-09-04T09:00:28.670Z,54.77
2018-09-04T09:02:58.165Z,53.70
2018-09-04T09:05:26.926Z,48.70
2018-09-04T09:07:55.596Z,56.00
2018-09-04T09:10:24.157Z,52.20
2018-09-04T09:12:53.971Z,58.63
2018-09-04T09:15:22.597Z,52.73
2018-09-04T09:17:51.271Z,51.53
2018-09-04T09:20:19.960Z,61.07
2018-09-04T09:22:48.703Z,56.30
2018-09-04T09:25:17.265Z,57.97
2018-09-04T09:27:45.896Z,57.23
2018-09-04T09:30:14.695Z,53.77
2018-09-04T09:32:43.591Z,51.27
2018-09-04T09:35:12.357Z,57.97
2018-09-04T09:37:40.961Z,54.37
2018-09-04T09:40:09.766Z,56.00
2018-09-04T09:42:38.401Z,52.10
2018-09-04T09:45:07.132Z,55.63
2018-09-04T09:47:39.991Z,55.17
2018-09-04T09:50:08.609Z,54.10
2018-09-04T09:52:37.782Z,48.70
2018-09-04T09:55:07.038Z,43.13
2018-09-04T09:57:36.140Z,48.73
2018-09-04T10:00:05.318Z,52.17
2018-09-04T10:03:09.313Z,51.17
2018-09-04T10:05:37.869Z,47.47
2018-09-04T10:08:06.576Z,47.67
2018-09-04T10:10:35.141Z,47.03
2018-09-04T10:13:03.709Z,45.30
2018-09-04T10:15:32.193Z,48.57
2018-09-04T10:18:00.773Z,47.40
2018-09-04T10:20:29.692Z,45.00
2018-09-04T10:22:58.295Z,44.53
2018-09-04T10:25:26.864Z,45.40
2018-09-04T10:27:55.807Z,49.00
2018-09-04T10:30:24.371Z,45.63
2018-09-04T10:32:54.018Z,46.47
2018-09-04T10:35:23.085Z,50.07
2018-09-04T10:37:51.999Z,48.20
2018-09-04T10:40:25.991Z,40.70
2018-09-04T10:42:54.533Z,39.47
2018-09-04T10:45:28.471Z,39.90
2018-09-04T10:47:57.197Z,46.57
2018-09-04T10:50:25.836Z,43.33
2018-09-04T10:52:54.406Z,37.47
2018-09-04T10:55:23.049Z,36.17
2018-09-04T10:57:51.791Z,40.27
2018-09-04T11:00:20.447Z,41.03
2018-09-04T11:02:54.291Z,41.77
2018-09-04T11:05:23.015Z,42.93
2018-09-04T11:07:51.701Z,41.20
2018-09-04T11:10:20.795Z,42.47
2018-09-04T11:12:49.446Z,41.97
2018-09-04T11:15:18.771Z,38.67
2018-09-04T11:17:47.367Z,38.90
2018-09-04T11:20:16.682Z,38.17
2018-09-04T11:22:45.567Z,37.60
2018-09-04T11:25:14.279Z,42.70
2018-09-04T11:27:48.678Z,43.03
2018-09-04T11:30:17.940Z,40.07
2018-09-04T11:32:46.562Z,38.43
2018-09-04T11:35:15.267Z,37.97
2018-09-04T11:37:43.936Z,38.73
2018-09-04T11:40:20.632Z,40.27
2018-09-04T11:42:49.235Z,37.27
2018-09-04T11:45:18.596Z,31.87
2018-09-04T11:47:47.186Z,37.43
2018-09-04T11:50:17.508Z,37.80
2018-09-04T11:52:46.296Z,33.50
2018-09-04T11:55:14.992Z,36.87
2018-09-04T11:57:43.580Z,37.47
2018-09-04T12:00:16.687Z,39.13
2018-09-04T12:02:45.722Z,34.03
2018-09-04T12:05:14.369Z,38.03
2018-09-04T12:07:43.083Z,37.30
2018-09-04T12:10:12.405Z,35.30
2018-09-04T12:12:41.341Z,34.63
2018-09-04T12:15:09.920Z,30.50
2018-09-04T12:17:38.945Z,35.37
2018-09-04T12:20:48.029Z,32.50
2018-09-04T12:23:16.839Z,36.00
2018-09-04T12:25:46.712Z,34.53
2018-09-04T12:28:16.300Z,32.77
2018-09-04T12:30:49.204Z,33.53
2018-09-04T12:33:18.025Z,34.43
2018-09-04T12:35:47.022Z,22.60
2018-09-04T12:38:17.588Z,17.67
2018-09-04T12:40:46.738Z,36.70
2018-09-04T12:43:15.942Z,31.97
2018-09-04T12:45:51.101Z,35.20
2018-09-04T12:48:22.828Z,33.60
2018-09-04T12:50:52.095Z,33.83
2018-09-04T12:53:21.314Z,36.10
2018-09-04T12:55:49.867Z,31.93
2018-09-04T12:58:18.466Z,23.53
2018-09-04T13:00:52.657Z,27.73
2018-09-04T13:03:22.791Z,31.47
2018-09-04T13:05:51.508Z,28.17
2018-09-04T13:08:21.301Z,37.60
2018-09-04T13:10:49.958Z,33.17
2018-09-04T13:13:18.581Z,28.50
2018-09-04T13:15:51.309Z,32.90
2018-09-04T13:18:20.182Z,33.93
2018-09-04T13:20:48.906Z,30.47
2018-09-04T13:23:17.749Z,28.63
2018-09-04T13:25:46.287Z,29.03
2018-09-04T13:28:15.041Z,29.83
2018-09-04T13:30:44.276Z,30.67
2018-09-04T13:33:12.940Z,28.57
2018-09-04T13:35:41.700Z,33.53
2018-09-04T13:38:10.317Z,26.70
2018-09-04T13:40:38.845Z,33.53
2018-09-04T13:43:07.476Z,31.53
2018-09-04T13:45:36.177Z,29.77
2018-09-04T13:48:04.869Z,28.43
2018-09-04T13:50:37.905Z,27.47
2018-09-04T13:53:06.613Z,27.57
2018-09-04T13:55:35.432Z,29.03
2018-09-04T13:58:04.043Z,33.83
2018-09-04T14:00:32.635Z,28.73
2018-09-04T14:03:01.271Z,27.73
2018-09-04T14:05:30.316Z,34.40
2018-09-04T14:07:58.932Z,28.17
2018-09-04T14:10:31.665Z,27.13
2018-09-04T14:13:00.248Z,26.23
2018-09-04T14:15:28.869Z,25.80
2018-09-04T14:17:57.570Z,25.60
2018-09-04T14:20:26.270Z,26.33
2018-09-04T14:22:54.912Z,32.30
2018-09-04T14:25:23.520Z,28.13
2018-09-04T14:27:54.109Z,30.13
2018-09-04T14:30:22.830Z,28.83
2018-09-04T14:32:51.373Z,26.37
2018-09-04T14:35:19.989Z,31.20
2018-09-04T14:37:48.550Z,28.50
2018-09-04T14:40:17.169Z,24.30
2018-09-04T14:42:46.665Z,26.67
2018-09-04T14:45:16.124Z,27.13
2018-09-04T14:47:45.099Z,26.30
2018-09-04T14:50:13.760Z,26.63
2018-09-04T14:52:42.280Z,25.53
2018-09-04T14:55:10.905Z,28.00
2018-09-04T14:57:39.488Z,19.20
2018-09-04T15:00:08.099Z,26.30
2018-09-04T15:02:36.664Z,27.50
2018-09-04T15:05:05.298Z,21.57
2018-09-04T15:07:34.038Z,24.97
2018-09-04T15:10:02.577Z,26.50
2018-09-04T15:12:31.149Z,24.37
2018-09-04T15:14:59.741Z,24.20
2018-09-04T15:17:28.283Z,23.53
2018-09-04T15:19:56.990Z,24.93
2018-09-04T15:22:27.217Z,27.13
2018-09-04T15:24:55.696Z,23.27
2018-09-04T15:27:24.277Z,23.73
2018-09-04T15:29:52.864Z,28.30
2018-09-04T15:32:21.476Z,25.80
2018-09-04T15:34:50.008Z,25.50
2018-09-04T15:37:18.789Z,21.60
2018-09-04T15:39:47.381Z,22.27
2018-09-04T15:42:17.528Z,23.83
2018-09-04T15:44:47.018Z,21.30
2018-09-04T15:47:16.680Z,25.07
2018-09-04T15:49:46.717Z,23.43
2018-09-04T15:52:19.992Z,23.77
2018-09-04T15:54:48.640Z,25.43
2018-09-04T15:57:17.173Z,19.93
2018-09-04T15:59:45.782Z,25.60
2018-09-04T16:02:14.419Z,22.07
2018-09-04T16:04:43.030Z,19.90
2018-09-04T16:07:11.808Z,22.13
2018-09-04T16:09:40.472Z,16.40
2018-09-04T16:12:09.441Z,21.47
2018-09-04T16:14:38.173Z,20.73
2018-09-04T16:17:06.973Z,18.20
2018-09-04T16:19:35.604Z,19.87
2018-09-04T16:22:04.440Z,23.13
2018-09-04T16:24:33.089Z,22.27
2018-09-04T16:27:01.874Z,24.57
2018-09-04T16:29:31.999Z,23.53
2018-09-04T16:32:01.069Z,20.80
2018-09-04T16:34:29.845Z,21.23
2018-09-04T16:36:58.457Z,23.47
2018-09-04T16:39:27.164Z,23.70
2018-09-04T16:41:56.056Z,26.10
2018-09-04T16:44:24.788Z,24.13
2018-09-04T16:46:54.429Z,26.47
2018-09-04T16:49:27.016Z,19.23
2018-09-04T16:51:57.121Z,21.83
2018-09-04T16:54:26.356Z,20.87
2018-09-04T16:56:54.981Z,26.93
2018-09-04T16:59:23.725Z,24.80
2018-09-04T17:01:52.395Z,20.87
2018-09-04T17:04:20.916Z,26.40
2018-09-04T17:06:49.440Z,21.03
2018-09-04T17:09:18.163Z,23.73
2018-09-04T17:11:46.896Z,22.33
2018-09-04T17:14:15.525Z,26.20
2018-09-04T17:16:44.031Z,26.60
2018-09-04T17:19:12.586Z,20.27
2018-09-04T17:21:41.142Z,20.87
2018-09-04T17:24:09.712Z,23.97
2018-09-04T17:26:38.189Z,21.20
2018-09-04T17:29:07.327Z,20.60
2018-09-04T17:31:35.781Z,23.07
2018-09-04T17:34:04.336Z,20.93
2018-09-04T17:36:32.795Z,21.67
2018-09-04T17:39:01.757Z,21.43
2018-09-04T17:41:30.708Z,21.13
2018-09-04T17:43:59.248Z,24.33
2018-09-04T17:46:27.841Z,24.53
2018-09-04T17:48:56.813Z,20.93
2018-09-04T17:51:25.346Z,21.87
2018-09-04T17:53:53.838Z,25.33
2018-09-04T17:56:22.463Z,27.57
2018-09-04T17:58:50.926Z,23.33
2018-09-04T18:01:19.373Z,24.00
2018-09-04T18:03:47.882Z,22.07
2018-09-04T18:06:16.468Z,20.33
2018-09-04T18:08:45.034Z,25.70
2018-09-04T18:11:13.892Z,25.43
2018-09-04T18:13:42.308Z,26.00
2018-09-04T18:16:10.914Z,23.60
2018-09-04T18:18:39.368Z,25.37
2018-09-04T18:21:41.888Z,24.27
2018-09-04T18:24:10.495Z,25.93
2018-09-04T18:26:39.465Z,24.10
2018-09-04T18:29:08.147Z,26.23
2018-09-04T18:31:36.668Z,22.13
2018-09-04T18:34:05.750Z,25.43
2018-09-04T18:36:34.335Z,27.03
2018-09-04T18:39:02.921Z,32.83
2018-09-04T18:41:31.474Z,29.57
2018-09-04T18:43:59.990Z,23.90
2018-09-04T18:46:28.476Z,25.23
2018-09-04T18:48:57.127Z,24.83
2018-09-04T18:51:26.515Z,26.07
2018-09-04T18:53:55.493Z,26.90
2018-09-04T18:56:24.045Z,27.53
2018-09-04T18:58:52.563Z,34.00
2018-09-04T19:01:21.097Z,24.70
2018-09-04T19:03:49.621Z,27.27
2018-09-04T19:06:18.170Z,28.13
2018-09-04T19:08:46.683Z,29.53
2018-09-04T19:11:15.169Z,27.83
2018-09-04T19:13:43.657Z,29.87
2018-09-04T19:16:12.189Z,32.43
2018-09-04T19:18:40.649Z,34.30
2018-09-04T19:21:09.147Z,31.97
2018-09-04T19:23:37.614Z,31.03
2018-09-04T19:26:06.198Z,34.40
2018-09-04T19:28:34.698Z,32.07
2018-09-04T19:31:03.431Z,31.67
2018-09-04T19:33:32.029Z,35.37
2018-09-04T19:36:00.637Z,30.37
2018-09-04T19:38:30.379Z,33.63
2018-09-04T19:40:59.074Z,34.57
2018-09-04T19:43:27.678Z,32.47
2018-09-04T19:45:56.816Z,33.13
2018-09-04T19:48:25.930Z,33.43
2018-09-04T19:50:54.917Z,30.60
2018-09-04T19:53:24.096Z,32.10
2018-09-04T19:55:52.677Z,37.50
2018-09-04T19:58:21.262Z,40.73
2018-09-04T20:00:51.385Z,38.40
2018-09-04T20:03:19.914Z,37.13
2018-09-04T20:05:48.505Z,37.03
2018-09-04T20:08:17.113Z,38.30
2018-09-04T20:10:45.668Z,39.50
2018-09-04T20:13:18.603Z,40.87
2018-09-04T20:15:47.117Z,40.47
2018-09-04T20:18:15.714Z,40.57
2018-09-04T20:20:44.340Z,37.70
2018-09-04T20:23:12.942Z,37.10
2018-09-04T20:25:41.629Z,37.13
2018-09-04T20:28:10.156Z,33.97
2018-09-04T20:30:39.596Z,35.67
2018-09-04T20:33:08.190Z,36.70
2018-09-04T20:35:36.779Z,34.17
2018-09-04T20:38:05.375Z,34.57
2018-09-04T20:40:34.833Z,37.07
2018-09-04T20:43:03.702Z,35.90
2018-09-04T20:45:32.446Z,35.20
2018-09-04T20:48:01.702Z,31.73
2018-09-04T20:50:30.282Z,39.67
2018-09-04T20:52:58.857Z,37.63
2018-09-04T20:55:27.438Z,33.90
2018-09-04T20:58:07.272Z,39.43
2018-09-04T21:00:47.249Z,36.83
2018-09-04T21:03:27.129Z,42.57
2018-09-04T21:06:07.226Z,36.90
2018-09-04T21:08:47.090Z,41.00
2018-09-04T21:11:15.644Z,40.33
2018-09-04T21:13:44.240Z,40.77
2018-09-04T21:16:12.764Z,33.97
2018-09-04T21:18:42.309Z,40.47
2018-09-04T21:21:10.955Z,35.27
2018-09-04T21:23:39.559Z,35.33
2018-09-04T21:26:08.625Z,33.73
2018-09-04T21:28:39.367Z,30.20
2018-09-04T21:31:08.733Z,35.20
2018-09-04T21:33:37.743Z,31.77
2018-09-04T21:36:07.089Z,34.47
2018-09-04T21:38:35.957Z,34.10
2018-09-04T21:41:05.171Z,32.43
2018-09-04T21:43:35.065Z,37.03
2018-09-04T21:46:04.176Z,35.20
2018-09-04T21:48:33.204Z,38.30
2018-09-04T21:51:02.710Z,39.50
2018-09-04T21:53:31.779Z,37.93
2018-09-04T21:56:00.508Z,48.37
2018-09-04T21:58:32.489Z,34.97
2018-09-04T22:01:01.585Z,40.90
2018-09-04T22:03:30.126Z,41.50
2018-09-04T22:05:59.841Z,37.30
2018-09-04T22:08:28.369Z,42.63
2018-09-04T22:10:57.191Z,41.97
2018-09-04T22:13:26.499Z,49.77
2018-09-04T22:15:55.110Z,42.23
2018-09-04T22:18:23.643Z,42.90
2018-09-04T22:20:52.115Z,46.20
2018-09-04T22:23:21.266Z,44.10
2018-09-04T22:25:49.807Z,47.33
2018-09-04T22:28:18.287Z,44.70
2018-09-04T22:30:46.832Z,44.07
2018-09-04T22:33:15.364Z,41.67
2018-09-04T22:35:43.931Z,41.63
2018-09-04T22:38:12.449Z,43.93
2018-09-04T22:40:41.084Z,46.40
2018-09-04T22:43:09.858Z,37.10
2018-09-04T22:45:38.504Z,41.00
2018-09-04T22:48:07.877Z,46.07
2018-09-04T22:50:41.782Z,43.67
2018-09-04T22:53:10.392Z,43.03
2018-09-04T22:55:38.963Z,37.83
2018-09-04T22:58:07.514Z,37.60
2018-09-04T23:00:36.190Z,40.93
2018-09-04T23:03:05.028Z,39.67
2018-09-04T23:05:33.603Z,41.07
2018-09-04T23:08:02.151Z,46.23
2018-09-04T23:10:30.838Z,41.87
2018-09-04T23:12:59.420Z,42.97
2018-09-04T23:15:28.040Z,48.47
2018-09-04T23:17:56.591Z,44.87
2018-09-04T23:20:25.182Z,43.60
2018-09-04T23:22:54.368Z,44.80
2018-09-04T23:25:23.762Z,46.07
2018-09-04T23:27:52.373Z,43.63
2018-09-04T23:30:20.995Z,42.00
2018-09-04T23:32:49.551Z,47.10
2018-09-04T23:35:18.074Z,44.80
2018-09-04T23:37:46.526Z,49.23
2018-09-04T23:40:15.132Z,47.10
2018-09-04T23:42:44.296Z,54.53
2018-09-04T23:45:13.622Z,55.20
2018-09-04T23:47:42.721Z,47.87
2018-09-04T23:50:11.326Z,51.13
2018-09-04T23:52:39.988Z,47.63
2018-09-04T23:55:08.570Z,47.93
2018-09-04T23:57:38.415Z,48.50
